createdAt,value
2023-05-10T00:00:56.666Z,80.24
2023-05-10T00:03:26.012Z,80.57
2023-05-10T00:05:55.407Z,80.86
2023-05-10T00:08:26.763Z,80.84
2023-05-10T00:10:56.506Z,80.96
2023-05-10T00:13:23.532Z,80.90
2023-05-10T00:15:52.654Z,80.88
2023-05-10T00:18:20.315Z,81.23
2023-05-10T00:20:50.024Z,81.13
2023-05-10T00:23:17.005Z,81.39
2023-05-10T00:25:46.278Z,81.12
2023-05-10T00:28:13.167Z,81.47
2023-05-10T00:30:39.969Z,81.60
2023-05-10T00:33:12.750Z,81.58
2023-05-10T00:35:41.918Z,81.66
2023-05-10T00:38:09.627Z,81.56
2023-05-10T00:40:41.431Z,81.64
2023-05-10T00:43:17.325Z,81.73
2023-05-10T00:45:50.289Z,81.65
2023-05-10T00:48:22.721Z,81.77
2023-05-10T00:50:49.682Z,81.79
2023-05-10T00:53:19.693Z,81.72
2023-05-10T00:55:49.336Z,81.72
2023-05-10T00:58:20.936Z,81.79
2023-05-10T01:00:47.918Z,81.78
2023-05-10T01:03:15.516Z,81.97
2023-05-10T01:05:44.897Z,81.85
2023-05-10T01:08:14.424Z,82.18
2023-05-10T01:10:46.686Z,82.13
2023-05-10T01:13:24.628Z,82.23
2023-05-10T01:15:51.530Z,82.23
2023-05-10T01:18:23.337Z,82.23
2023-05-10T01:21:05.543Z,82.49
2023-05-10T01:24:09.624Z,82.34
2023-05-10T01:26:51.853Z,82.42
2023-05-10T01:29:34.399Z,82.40
2023-05-10T01:32:06.630Z,82.06
2023-05-10T01:35:00.910Z,82.79
2023-05-10T01:37:39.911Z,82.53
2023-05-10T01:40:26.703Z,82.13
2023-05-10T01:42:58.096Z,82.16
2023-05-10T01:45:55.661Z,82.51
2023-05-10T01:48:24.265Z,81.91
2023-05-10T01:50:52.812Z,81.96
2023-05-10T01:53:21.650Z,82.14
2023-05-10T01:55:51.997Z,82.44
2023-05-10T01:58:24.004Z,82.14
2023-05-10T02:00:53.092Z,82.27
2023-05-10T02:03:25.573Z,82.04
2023-05-10T02:05:54.296Z,82.19
2023-05-10T02:08:25.593Z,82.37
2023-05-10T02:10:58.109Z,82.49
2023-05-10T02:13:29.547Z,82.39
2023-05-10T02:15:59.285Z,82.56
2023-05-10T02:18:31.291Z,82.58
2023-05-10T02:21:05.129Z,82.53
2023-05-10T02:23:36.173Z,82.75
2023-05-10T02:26:05.096Z,82.62
2023-05-10T02:28:33.590Z,82.80
2023-05-10T02:31:06.442Z,82.92
2023-05-10T02:33:42.108Z,82.98
2023-05-10T02:36:13.613Z,82.66
2023-05-10T02:38:42.201Z,82.36
2023-05-10T02:41:11.505Z,82.58
2023-05-10T02:43:41.004Z,82.21
2023-05-10T02:46:07.907Z,82.39
2023-05-10T02:48:39.440Z,82.71
2023-05-10T02:51:09.445Z,82.99
2023-05-10T02:53:44.540Z,82.86
2023-05-10T02:56:28.842Z,82.80
2023-05-10T02:58:56.742Z,82.59
2023-05-10T03:01:26.427Z,82.55
2023-05-10T03:04:00.665Z,82.49
2023-05-10T03:06:35.692Z,82.42
2023-05-10T03:09:05.292Z,82.47
2023-05-10T03:11:38.132Z,82.60
2023-05-10T03:14:31.128Z,82.98
2023-05-10T03:17:05.409Z,82.67
2023-05-10T03:19:58.419Z,82.83
2023-05-10T03:22:35.590Z,82.65
2023-05-10T03:25:11.983Z,82.43
2023-05-10T03:27:45.306Z,83.05
2023-05-10T03:30:15.792Z,82.87
2023-05-10T03:32:47.206Z,83.12
2023-05-10T03:35:21.652Z,83.09
2023-05-10T03:37:48.637Z,82.90
2023-05-10T03:40:15.771Z,83.09
2023-05-10T03:42:46.510Z,83.18
2023-05-10T03:45:13.273Z,83.09
2023-05-10T03:47:42.501Z,83.14
2023-05-10T03:50:12.281Z,83.35
2023-05-10T03:52:40.314Z,83.38
2023-05-10T03:55:10.211Z,83.53
2023-05-10T03:57:37.113Z,83.47
2023-05-10T04:00:07.584Z,83.60
2023-05-10T04:02:41.615Z,83.61
2023-05-10T04:05:12.231Z,83.87
2023-05-10T04:07:45.443Z,84.00
2023-05-10T04:10:12.829Z,84.01
2023-05-10T04:12:39.708Z,84.09
2023-05-10T04:15:07.712Z,84.14
2023-05-10T04:17:36.785Z,84.10
2023-05-10T04:20:06.142Z,84.28
2023-05-10T04:22:35.848Z,84.15
2023-05-10T04:25:02.666Z,84.34
2023-05-10T04:27:32.221Z,84.21
2023-05-10T04:29:59.132Z,84.18
2023-05-10T04:32:29.287Z,84.13
2023-05-10T04:34:56.228Z,84.42
2023-05-10T04:37:24.128Z,84.31
2023-05-10T04:39:53.226Z,84.31
2023-05-10T04:42:22.120Z,84.43
2023-05-10T04:44:54.159Z,84.79
2023-05-10T04:47:21.075Z,84.82
2023-05-10T04:49:50.267Z,85.53
2023-05-10T04:52:20.079Z,85.41
2023-05-10T04:54:49.175Z,85.39
2023-05-10T04:57:18.274Z,85.26
2023-05-10T04:59:50.688Z,85.19
2023-05-10T05:02:19.953Z,85.04
2023-05-10T05:04:49.240Z,84.97
2023-05-10T05:07:18.382Z,85.10
2023-05-10T05:09:48.238Z,84.67
2023-05-10T05:12:17.259Z,85.02
2023-05-10T05:14:46.519Z,85.05
2023-05-10T05:17:16.393Z,85.21
2023-05-10T05:19:45.420Z,85.09
2023-05-10T05:22:12.223Z,84.55
2023-05-10T05:24:39.403Z,84.22
2023-05-10T05:27:07.074Z,84.30
2023-05-10T05:29:36.711Z,84.36
2023-05-10T05:32:03.562Z,84.63
2023-05-10T05:34:32.881Z,84.47
2023-05-10T05:37:04.182Z,84.48
2023-05-10T05:39:33.213Z,84.34
2023-05-10T05:42:00.170Z,84.25
2023-05-10T05:44:30.020Z,83.99
2023-05-10T05:46:59.169Z,84.09
2023-05-10T05:49:30.724Z,84.17
2023-05-10T05:52:05.163Z,84.09
2023-05-10T05:54:32.724Z,84.08
2023-05-10T05:57:02.495Z,83.97
2023-05-10T05:59:34.217Z,84.33
2023-05-10T06:02:05.670Z,84.14
2023-05-10T06:04:32.598Z,83.71
2023-05-10T06:06:59.846Z,83.76
2023-05-10T06:09:29.216Z,83.79
2023-05-10T06:12:00.646Z,84.02
2023-05-10T06:14:27.441Z,84.11
2023-05-10T06:16:56.574Z,84.43
2023-05-10T06:19:25.610Z,84.17
2023-05-10T06:21:57.217Z,84.19
2023-05-10T06:24:23.987Z,84.36
2023-05-10T06:26:53.472Z,84.32
2023-05-10T06:29:20.357Z,84.15
2023-05-10T06:31:51.477Z,84.00
2023-05-10T06:34:25.360Z,84.16
2023-05-10T06:36:54.688Z,83.97
2023-05-10T06:39:26.370Z,84.00
2023-05-10T06:41:57.782Z,84.10
2023-05-10T06:44:37.458Z,84.09
2023-05-10T06:47:04.321Z,84.42
2023-05-10T06:49:31.132Z,84.71
2023-05-10T06:52:02.504Z,84.62
2023-05-10T06:54:31.779Z,84.75
2023-05-10T06:57:02.548Z,84.86
2023-05-10T06:59:35.440Z,84.73
2023-05-10T07:02:11.932Z,85.13
2023-05-10T07:04:38.829Z,84.88
2023-05-10T07:07:06.220Z,84.85
2023-05-10T07:09:37.585Z,84.88
2023-05-10T07:12:08.034Z,84.58
2023-05-10T07:14:36.426Z,84.25
2023-05-10T07:17:03.175Z,84.01
2023-05-10T07:19:33.771Z,84.09
2023-05-10T07:22:05.916Z,84.18
2023-05-10T07:24:37.997Z,83.06
2023-05-10T07:27:10.203Z,82.79
2023-05-10T07:29:39.668Z,82.16
2023-05-10T07:32:09.364Z,82.20
2023-05-10T07:34:38.567Z,82.27
2023-05-10T07:37:08.599Z,81.88
2023-05-10T07:39:35.394Z,82.08
2023-05-10T07:42:06.932Z,81.99
2023-05-10T07:44:36.814Z,82.53
2023-05-10T07:47:05.976Z,82.42
2023-05-10T07:49:34.974Z,81.90
2023-05-10T07:52:01.814Z,82.35
2023-05-10T07:54:28.962Z,82.11
2023-05-10T07:56:58.408Z,81.99
2023-05-10T07:59:27.673Z,81.69
2023-05-10T08:01:57.699Z,81.66
2023-05-10T08:04:24.592Z,81.54
2023-05-10T08:06:53.758Z,81.05
2023-05-10T08:09:25.481Z,79.86
2023-05-10T08:12:02.142Z,79.93
2023-05-10T08:14:32.976Z,80.12
2023-05-10T08:17:04.916Z,79.07
2023-05-10T08:19:36.711Z,78.36
2023-05-10T08:22:03.594Z,78.71
2023-05-10T08:24:39.568Z,79.19
2023-05-10T08:27:10.808Z,79.12
2023-05-10T08:29:50.164Z,78.09
2023-05-10T08:32:20.352Z,77.38
2023-05-10T08:34:49.473Z,77.19
2023-05-10T08:37:19.228Z,77.25
2023-05-10T08:39:49.017Z,77.47
2023-05-10T08:42:23.797Z,76.90
2023-05-10T08:44:56.913Z,76.17
2023-05-10T08:47:26.541Z,76.16
2023-05-10T08:49:56.473Z,75.70
2023-05-10T08:52:33.241Z,75.35
2023-05-10T08:55:02.614Z,75.21
2023-05-10T08:57:34.254Z,75.46
2023-05-10T09:00:06.836Z,74.94
2023-05-10T09:02:40.480Z,74.75
2023-05-10T09:05:14.401Z,74.40
2023-05-10T09:07:43.741Z,74.82
2023-05-10T09:10:11.977Z,74.17
2023-05-10T09:12:39.636Z,74.34
2023-05-10T09:15:10.603Z,73.79
2023-05-10T09:17:38.347Z,74.32
2023-05-10T09:20:10.973Z,74.19
2023-05-10T09:22:38.868Z,73.65
2023-05-10T09:25:12.486Z,73.86
2023-05-10T09:27:41.047Z,74.75
2023-05-10T09:30:11.680Z,74.00
2023-05-10T09:32:42.618Z,72.88
2023-05-10T09:35:19.385Z,72.47
2023-05-10T09:37:51.630Z,73.74
2023-05-10T09:40:26.208Z,74.39
2023-05-10T09:43:11.999Z,73.58
2023-05-10T09:45:47.320Z,74.26
2023-05-10T09:48:16.738Z,74.02
2023-05-10T09:50:43.503Z,74.40
2023-05-10T09:53:12.561Z,75.02
2023-05-10T09:55:47.530Z,74.87
2023-05-10T09:58:17.009Z,75.37
2023-05-10T10:00:45.838Z,75.91
2023-05-10T10:03:22.509Z,75.27
2023-05-10T10:05:54.409Z,75.00
2023-05-10T10:08:26.268Z,75.48
2023-05-10T10:10:57.844Z,75.55
2023-05-10T10:13:27.231Z,75.22
2023-05-10T10:15:55.897Z,74.62
2023-05-10T10:18:28.207Z,75.32
2023-05-10T10:21:00.591Z,75.47
2023-05-10T10:23:33.475Z,74.01
2023-05-10T10:26:01.273Z,73.93
2023-05-10T10:28:36.841Z,73.19
2023-05-10T10:31:22.346Z,73.76
2023-05-10T10:34:05.163Z,73.75
2023-05-10T10:36:34.389Z,73.44
2023-05-10T10:39:14.783Z,73.06
2023-05-10T10:42:03.890Z,72.15
2023-05-10T10:44:34.913Z,72.21
2023-05-10T10:47:19.941Z,72.32
2023-05-10T10:49:53.986Z,72.94
2023-05-10T10:52:36.630Z,71.57
2023-05-10T10:55:26.181Z,71.69
2023-05-10T10:58:05.582Z,71.89
2023-05-10T11:00:42.013Z,72.01
2023-05-10T11:03:19.868Z,72.27
2023-05-10T11:05:54.193Z,71.89
2023-05-10T11:08:42.309Z,71.46
2023-05-10T11:11:15.253Z,71.61
2023-05-10T11:13:48.392Z,71.24
2023-05-10T11:16:28.016Z,71.58
2023-05-10T11:18:55.178Z,71.88
2023-05-10T11:21:27.597Z,72.07
2023-05-10T11:24:01.273Z,71.50
2023-05-10T11:26:40.235Z,71.54
2023-05-10T11:29:07.362Z,71.95
2023-05-10T11:31:42.792Z,72.22
2023-05-10T11:34:15.579Z,72.51
2023-05-10T11:36:53.041Z,71.80
2023-05-10T11:39:29.955Z,71.08
2023-05-10T11:41:57.743Z,70.66
2023-05-10T11:44:35.933Z,70.32
2023-05-10T11:47:11.153Z,70.73
2023-05-10T11:49:46.418Z,69.86
2023-05-10T11:52:22.142Z,69.42
2023-05-10T11:54:55.264Z,69.88
2023-05-10T11:57:28.744Z,70.25
2023-05-10T12:00:01.282Z,70.60
2023-05-10T12:02:30.592Z,71.21
2023-05-10T12:05:00.119Z,72.08
2023-05-10T12:07:31.940Z,73.02
2023-05-10T12:10:11.380Z,73.77
2023-05-10T12:12:56.246Z,74.00
2023-05-10T12:15:25.495Z,73.90
2023-05-10T12:17:54.571Z,74.12
2023-05-10T12:20:23.341Z,74.44
2023-05-10T12:22:55.221Z,73.82
2023-05-10T12:25:38.740Z,73.46
2023-05-10T12:28:12.076Z,74.01
2023-05-10T12:30:39.866Z,74.43
2023-05-10T12:33:17.872Z,74.47
2023-05-10T12:35:52.381Z,74.87
2023-05-10T12:38:34.680Z,75.84
2023-05-10T12:41:13.685Z,75.84
2023-05-10T12:43:43.900Z,76.09
2023-05-10T12:46:17.401Z,76.64
2023-05-10T12:48:55.262Z,76.90
2023-05-10T12:51:35.064Z,77.82
2023-05-10T12:54:04.942Z,78.26
2023-05-10T12:56:34.078Z,78.37
2023-05-10T12:59:08.089Z,78.58
2023-05-10T13:01:37.295Z,77.74
2023-05-10T13:04:08.950Z,77.57
2023-05-10T13:06:36.303Z,76.50
2023-05-10T13:09:08.100Z,75.98
2023-05-10T13:11:40.057Z,75.62
2023-05-10T13:14:06.991Z,75.43
2023-05-10T13:16:38.706Z,75.78
2023-05-10T13:19:05.615Z,75.91
2023-05-10T13:21:35.580Z,76.26
2023-05-10T13:24:04.654Z,76.74
2023-05-10T13:26:33.830Z,76.78
2023-05-10T13:29:02.915Z,77.07
2023-05-10T13:31:32.169Z,77.38
2023-05-10T13:34:06.410Z,77.94
2023-05-10T13:36:40.103Z,77.05
2023-05-10T13:39:09.770Z,76.89
2023-05-10T13:41:36.703Z,76.62
2023-05-10T13:44:08.250Z,76.65
2023-05-10T13:46:40.350Z,76.85
2023-05-10T13:49:09.462Z,77.32
2023-05-10T13:51:41.691Z,77.33
2023-05-10T13:54:13.902Z,77.71
2023-05-10T13:56:43.652Z,77.37
2023-05-10T13:59:13.003Z,77.55
2023-05-10T14:01:39.826Z,78.27
2023-05-10T14:04:07.457Z,77.95
2023-05-10T14:06:37.616Z,77.96
2023-05-10T14:09:04.732Z,78.10
2023-05-10T14:11:36.037Z,78.17
2023-05-10T14:14:02.820Z,78.39
2023-05-10T14:16:32.419Z,78.88
2023-05-10T14:18:59.271Z,79.41
2023-05-10T14:21:29.994Z,79.54
2023-05-10T14:24:03.596Z,79.59
2023-05-10T14:26:35.817Z,79.49
2023-05-10T14:29:09.887Z,80.10
2023-05-10T14:31:37.505Z,79.41
2023-05-10T14:34:06.867Z,79.89
2023-05-10T14:36:36.048Z,80.04
2023-05-10T14:39:11.176Z,79.93
2023-05-10T14:41:38.874Z,79.86
2023-05-10T14:44:08.238Z,79.66
2023-05-10T14:46:37.585Z,79.61
2023-05-10T14:49:04.493Z,79.92
2023-05-10T14:51:38.030Z,79.94
2023-05-10T14:54:05.018Z,80.24
2023-05-10T14:56:33.101Z,80.07
2023-05-10T14:59:05.288Z,79.89
2023-05-10T15:01:38.441Z,80.02
2023-05-10T15:04:14.621Z,80.18
2023-05-10T15:06:46.713Z,79.61
2023-05-10T15:09:18.370Z,79.87
2023-05-10T15:11:47.779Z,80.00
2023-05-10T15:14:19.898Z,80.17
2023-05-10T15:16:49.797Z,79.96
2023-05-10T15:19:18.825Z,80.33
2023-05-10T15:21:46.184Z,80.54
2023-05-10T15:24:17.899Z,80.84
2023-05-10T15:26:46.993Z,81.42
2023-05-10T15:29:20.786Z,81.28
2023-05-10T15:31:52.837Z,81.48
2023-05-10T15:34:29.736Z,81.42
2023-05-10T15:36:56.592Z,81.52
2023-05-10T15:39:23.414Z,81.60
2023-05-10T15:41:53.239Z,81.76
2023-05-10T15:44:20.144Z,81.30
2023-05-10T15:46:47.099Z,81.28
2023-05-10T15:49:16.545Z,81.48
2023-05-10T15:51:46.336Z,81.30
2023-05-10T15:54:13.134Z,81.65
2023-05-10T15:56:42.453Z,82.45
2023-05-10T15:59:13.901Z,82.03
2023-05-10T16:01:40.757Z,82.15
2023-05-10T16:04:14.607Z,82.05
2023-05-10T16:06:43.957Z,82.12
2023-05-10T16:09:12.992Z,82.23
2023-05-10T16:11:42.226Z,82.23
2023-05-10T16:14:12.088Z,82.32
2023-05-10T16:16:49.112Z,81.84
2023-05-10T16:19:18.682Z,81.98
2023-05-10T16:21:50.620Z,81.53
2023-05-10T16:24:17.506Z,82.10
2023-05-10T16:26:48.980Z,81.74
2023-05-10T16:29:18.226Z,81.67
2023-05-10T16:31:49.869Z,81.59
2023-05-10T16:34:16.906Z,82.06
2023-05-10T16:36:45.922Z,81.89
2023-05-10T16:39:15.842Z,82.08
2023-05-10T16:41:42.747Z,81.94
2023-05-10T16:44:12.524Z,81.91
2023-05-10T16:46:41.634Z,81.55
2023-05-10T16:49:09.035Z,81.61
2023-05-10T16:51:38.324Z,81.75
2023-05-10T16:54:07.337Z,82.07
2023-05-10T16:56:39.358Z,82.15
2023-05-10T16:59:08.742Z,81.88
2023-05-10T17:01:37.833Z,82.45
2023-05-10T17:04:11.750Z,82.76
2023-05-10T17:06:43.785Z,83.02
2023-05-10T17:09:10.709Z,82.76
2023-05-10T17:11:42.787Z,83.49
2023-05-10T17:14:19.175Z,83.53
2023-05-10T17:16:48.653Z,83.57
2023-05-10T17:19:18.205Z,83.55
2023-05-10T17:21:47.728Z,83.81
2023-05-10T17:24:22.138Z,83.91
2023-05-10T17:26:51.395Z,83.83
2023-05-10T17:29:20.429Z,84.12
2023-05-10T17:31:51.889Z,83.80
2023-05-10T17:34:21.920Z,83.44
2023-05-10T17:36:55.903Z,82.98
2023-05-10T17:39:22.778Z,82.26
2023-05-10T17:41:49.633Z,81.81
2023-05-10T17:44:16.488Z,81.71
2023-05-10T17:46:45.539Z,81.17
2023-05-10T17:49:12.427Z,81.18
2023-05-10T17:51:44.190Z,81.05
2023-05-10T17:54:15.788Z,81.38
2023-05-10T17:56:44.779Z,81.12
2023-05-10T17:59:11.634Z,81.37
2023-05-10T18:01:38.400Z,81.32
2023-05-10T18:04:10.078Z,81.15
2023-05-10T18:06:40.459Z,81.20
2023-05-10T18:09:12.099Z,81.34
2023-05-10T18:11:41.904Z,81.57
2023-05-10T18:14:13.434Z,81.39
2023-05-10T18:16:43.312Z,81.89
2023-05-10T18:19:10.189Z,82.11
2023-05-10T18:21:39.197Z,81.86
2023-05-10T18:24:06.356Z,81.87
2023-05-10T18:26:35.529Z,81.72
2023-05-10T18:29:04.576Z,81.80
2023-05-10T18:31:33.705Z,81.76
2023-05-10T18:34:07.573Z,81.76
2023-05-10T18:36:36.598Z,81.71
2023-05-10T18:39:08.629Z,81.59
2023-05-10T18:41:41.071Z,81.93
2023-05-10T18:44:08.332Z,81.68
2023-05-10T18:46:38.363Z,81.46
2023-05-10T18:49:10.115Z,81.52
2023-05-10T18:51:44.491Z,81.44
2023-05-10T18:54:17.010Z,81.75
2023-05-10T18:56:48.919Z,81.66
2023-05-10T18:59:20.559Z,81.82
2023-05-10T19:01:51.274Z,82.15
2023-05-10T19:04:25.257Z,82.41
2023-05-10T19:06:52.191Z,82.72
2023-05-10T19:09:24.353Z,82.71
2023-05-10T19:11:53.913Z,82.93
2023-05-10T19:14:23.124Z,82.67
2023-05-10T19:16:53.681Z,82.58
2023-05-10T19:19:27.808Z,82.24
2023-05-10T19:21:56.779Z,82.14
2023-05-10T19:24:29.226Z,82.01
2023-05-10T19:26:58.327Z,81.60
2023-05-10T19:29:27.704Z,81.68
2023-05-10T19:32:00.688Z,81.70
2023-05-10T19:34:32.564Z,82.13
2023-05-10T19:37:01.651Z,82.02
2023-05-10T19:39:32.721Z,82.11
2023-05-10T19:42:07.429Z,82.13
2023-05-10T19:44:36.642Z,82.13
2023-05-10T19:47:05.356Z,82.36
2023-05-10T19:49:39.677Z,82.17
2023-05-10T19:52:10.734Z,82.04
2023-05-10T19:54:39.798Z,82.20
2023-05-10T19:57:12.140Z,82.00
2023-05-10T19:59:43.242Z,82.31
2023-05-10T20:02:12.427Z,82.21
2023-05-10T20:04:39.319Z,82.30
2023-05-10T20:07:06.091Z,82.56
2023-05-10T20:09:37.692Z,82.71
2023-05-10T20:12:04.644Z,82.00
2023-05-10T20:14:38.665Z,82.15
2023-05-10T20:17:12.816Z,82.05
2023-05-10T20:19:42.071Z,82.20
2023-05-10T20:22:09.604Z,82.21
2023-05-10T20:24:44.000Z,82.09
2023-05-10T20:27:10.763Z,82.08
2023-05-10T20:29:37.580Z,81.98
2023-05-10T20:32:09.149Z,81.95
2023-05-10T20:34:35.969Z,82.22
2023-05-10T20:37:04.839Z,82.78
2023-05-10T20:39:38.786Z,82.32
2023-05-10T20:42:08.565Z,82.14
2023-05-10T20:44:39.624Z,82.32
2023-05-10T20:47:06.835Z,82.19
2023-05-10T20:49:38.082Z,82.48
2023-05-10T20:52:12.542Z,82.53
2023-05-10T20:54:44.242Z,82.23
2023-05-10T20:57:14.652Z,82.62
2023-05-10T20:59:44.453Z,82.83
2023-05-10T21:02:16.816Z,83.23
2023-05-10T21:04:50.966Z,82.97
2023-05-10T21:07:18.048Z,83.42
2023-05-10T21:09:47.073Z,83.32
2023-05-10T21:12:13.826Z,82.93
2023-05-10T21:14:47.178Z,82.99
2023-05-10T21:17:18.779Z,82.92
2023-05-10T21:19:49.234Z,83.05
2023-05-10T21:22:20.874Z,83.06
2023-05-10T21:24:47.861Z,83.29
2023-05-10T21:27:17.076Z,83.26
2023-05-10T21:29:51.097Z,83.25
2023-05-10T21:32:17.970Z,83.15
2023-05-10T21:34:47.185Z,82.80
2023-05-10T21:37:18.297Z,82.42
2023-05-10T21:39:45.111Z,81.79
2023-05-10T21:42:12.043Z,81.80
2023-05-10T21:44:41.092Z,81.98
2023-05-10T21:47:12.748Z,81.79
2023-05-10T21:49:44.396Z,81.95
2023-05-10T21:52:13.491Z,81.77
2023-05-10T21:54:40.484Z,81.88
2023-05-10T21:57:09.787Z,81.88
2023-05-10T21:59:38.927Z,82.29
2023-05-10T22:02:08.387Z,82.19
2023-05-10T22:04:37.707Z,82.79
2023-05-10T22:07:06.840Z,82.60
2023-05-10T22:09:35.673Z,82.39
2023-05-10T22:12:02.526Z,82.57
2023-05-10T22:14:31.786Z,82.60
2023-05-10T22:17:03.961Z,82.39
2023-05-10T22:19:33.022Z,82.51
2023-05-10T22:22:07.102Z,82.67
2023-05-10T22:24:37.012Z,82.33
2023-05-10T22:27:06.219Z,82.37
2023-05-10T22:29:37.757Z,82.53
2023-05-10T22:32:07.166Z,82.58
2023-05-10T22:34:43.300Z,83.04
2023-05-10T22:37:15.005Z,82.74
2023-05-10T22:39:44.069Z,83.15
2023-05-10T22:42:18.245Z,82.96
2023-05-10T22:44:49.829Z,83.08
2023-05-10T22:47:23.986Z,83.08
2023-05-10T22:49:56.331Z,83.13
2023-05-10T22:52:26.141Z,83.25
2023-05-10T22:55:00.347Z,83.48
2023-05-10T22:57:29.783Z,83.55
2023-05-10T22:59:56.696Z,83.17
2023-05-10T23:02:23.642Z,83.33
2023-05-10T23:04:55.403Z,83.36
2023-05-10T23:07:24.549Z,83.55
2023-05-10T23:09:58.623Z,83.75
2023-05-10T23:12:25.458Z,83.91
2023-05-10T23:14:52.365Z,83.66
2023-05-10T23:17:26.553Z,83.32
2023-05-10T23:19:58.004Z,83.38
2023-05-10T23:22:29.622Z,83.72
2023-05-10T23:25:01.305Z,83.67
2023-05-10T23:27:31.060Z,83.26
2023-05-10T23:30:05.260Z,83.57
2023-05-10T23:32:36.825Z,83.46
2023-05-10T23:35:03.878Z,83.57
2023-05-10T23:37:32.950Z,83.67
2023-05-10T23:39:59.760Z,83.42
2023-05-10T23:42:32.384Z,83.39
2023-05-10T23:45:01.637Z,83.29
2023-05-10T23:47:28.436Z,83.41
2023-05-10T23:49:58.322Z,83.64
2023-05-10T23:52:27.374Z,83.53
2023-05-10T23:54:54.394Z,83.73
2023-05-10T23:57:23.413Z,84.09
2023-05-10T23:59:53.192Z,84.12
